sensor_id;sensor_type;location;lat;lon;timestamp;temperature;humidity
75296;DHT22;64623;44.738;37.804;2024-03-08T00:00:34;3.33;118.99
75296;DHT22;64623;44.738;37.804;2024-03-08T00:01:37;3.35;118.99
75296;DHT22;64623;44.738;37.804;2024-03-08T00:02:47;3.36;118.99
75296;DHT22;64623;44.738;37.804;2024-03-08T00:03:50;3.30;118.99
75296;DHT22;64623;44.738;37.804;2024-03-08T00:04:54;3.24;118.99
75296;DHT22;64623;44.738;37.804;2024-03-08T00:05:57;3.21;118.99
75296;DHT22;64623;44.738;37.804;2024-03-08T00:07:01;3.25;118.99
75296;DHT22;64623;44.738;37.804;2024-03-08T00:08:05;3.25;118.99
75296;DHT22;64623;44.738;37.804;2024-03-08T00:09:12;3.24;118.99
75296;DHT22;64623;44.738;37.804;2024-03-08T00:10:15;3.24;118.99
75296;DHT22;64623;44.738;37.804;2024-03-08T00:11:19;3.21;118.99
75296;DHT22;64623;44.738;37.804;2024-03-08T00:12:23;3.24;118.99
75296;DHT22;64623;44.738;37.804;2024-03-08T00:13:28;3.24;118.99
75296;DHT22;64623;44.738;37.804;2024-03-08T00:14:31;3.20;118.99
75296;DHT22;64623;44.738;37.804;2024-03-08T00:15:34;3.24;118.99
75296;DHT22;64623;44.738;37.804;2024-03-08T00:16:37;3.29;118.99
75296;DHT22;64623;44.738;37.804;2024-03-08T00:17:42;3.32;118.99
75296;DHT22;64623;44.738;37.804;2024-03-08T00:18:46;3.30;118.99
75296;DHT22;64623;44.738;37.804;2024-03-08T00:19:49;3.30;118.99
75296;DHT22;64623;44.738;37.804;2024-03-08T00:20:55;3.27;118.99
75296;DHT22;64623;44.738;37.804;2024-03-08T00:21:58;3.26;118.99
75296;DHT22;64623;44.738;37.804;2024-03-08T00:23:01;3.28;118.99
75296;DHT22;64623;44.738;37.804;2024-03-08T00:24:05;3.28;118.99
75296;DHT22;64623;44.738;37.804;2024-03-08T00:25:08;3.33;118.99
75296;DHT22;64623;44.738;37.804;2024-03-08T00:26:11;3.34;118.99
75296;DHT22;64623;44.738;37.804;2024-03-08T00:27:14;3.32;118.99
75296;DHT22;64623;44.738;37.804;2024-03-08T00:28:18;3.35;118.99
75296;DHT22;64623;44.738;37.804;2024-03-08T00:29:21;3.33;118.99
75296;DHT22;64623;44.738;37.804;2024-03-08T00:30:24;3.38;118.99
75296;DHT22;64623;44.738;37.804;2024-03-08T00:31:27;3.43;118.99
75296;DHT22;64623;44.738;37.804;2024-03-08T00:32:30;3.43;118.99
75296;DHT22;64623;44.738;37.804;2024-03-08T00:33:34;3.44;118.99
75296;DHT22;64623;44.738;37.804;2024-03-08T00:34:37;3.44;118.99
75296;DHT22;64623;44.738;37.804;2024-03-08T00:35:40;3.42;118.99
75296;DHT22;64623;44.738;37.804;2024-03-08T00:36:43;3.43;118.99
75296;DHT22;64623;44.738;37.804;2024-03-08T00:37:46;3.43;118.99
75296;DHT22;64623;44.738;37.804;2024-03-08T00:38:50;3.41;118.99
75296;DHT22;64623;44.738;37.804;2024-03-08T00:39:53;3.42;118.99
75296;DHT22;64623;44.738;37.804;2024-03-08T00:40:56;3.43;118.99
75296;DHT22;64623;44.738;37.804;2024-03-08T00:41:59;3.43;118.99
75296;DHT22;64623;44.738;37.804;2024-03-08T00:43:02;3.43;118.99
75296;DHT22;64623;44.738;37.804;2024-03-08T00:44:06;3.41;118.99
75296;DHT22;64623;44.738;37.804;2024-03-08T00:45:10;3.39;118.99
75296;DHT22;64623;44.738;37.804;2024-03-08T00:46:13;3.42;118.99
75296;DHT22;64623;44.738;37.804;2024-03-08T00:47:17;3.42;118.99
75296;DHT22;64623;44.738;37.804;2024-03-08T00:48:20;3.45;118.99
75296;DHT22;64623;44.738;37.804;2024-03-08T00:49:23;3.43;118.99
75296;DHT22;64623;44.738;37.804;2024-03-08T00:50:26;3.40;118.99
75296;DHT22;64623;44.738;37.804;2024-03-08T00:51:30;3.41;118.99
75296;DHT22;64623;44.738;37.804;2024-03-08T00:52:33;3.40;118.99
75296;DHT22;64623;44.738;37.804;2024-03-08T00:53:37;3.39;118.99
75296;DHT22;64623;44.738;37.804;2024-03-08T00:54:40;3.35;118.99
75296;DHT22;64623;44.738;37.804;2024-03-08T00:55:43;3.32;118.99
75296;DHT22;64623;44.738;37.804;2024-03-08T00:56:49;3.31;118.99
75296;DHT22;64623;44.738;37.804;2024-03-08T00:57:52;3.32;118.99
75296;DHT22;64623;44.738;37.804;2024-03-08T00:58:56;3.30;118.99
75296;DHT22;64623;44.738;37.804;2024-03-08T00:59:59;3.34;118.99
75296;DHT22;64623;44.738;37.804;2024-03-08T01:01:02;3.34;118.99
75296;DHT22;64623;44.738;37.804;2024-03-08T01:02:05;3.30;118.99
75296;DHT22;64623;44.738;37.804;2024-03-08T01:03:08;3.25;118.99
75296;DHT22;64623;44.738;37.804;2024-03-08T01:04:13;3.20;118.99
75296;DHT22;64623;44.738;37.804;2024-03-08T01:05:16;3.16;118.99
75296;DHT22;64623;44.738;37.804;2024-03-08T01:06:19;3.18;118.99
75296;DHT22;64623;44.738;37.804;2024-03-08T01:07:22;3.17;118.99
75296;DHT22;64623;44.738;37.804;2024-03-08T01:08:25;3.17;118.99
75296;DHT22;64623;44.738;37.804;2024-03-08T01:09:28;3.19;118.99
75296;DHT22;64623;44.738;37.804;2024-03-08T01:10:31;3.23;118.99
75296;DHT22;64623;44.738;37.804;2024-03-08T01:11:34;3.23;118.99
75296;DHT22;64623;44.738;37.804;2024-03-08T01:12:38;3.19;118.99
75296;DHT22;64623;44.738;37.804;2024-03-08T01:13:42;3.16;118.99
75296;DHT22;64623;44.738;37.804;2024-03-08T01:14:44;3.15;118.99
75296;DHT22;64623;44.738;37.804;2024-03-08T01:15:47;3.15;118.99
75296;DHT22;64623;44.738;37.804;2024-03-08T01:16:50;3.18;118.99
75296;DHT22;64623;44.738;37.804;2024-03-08T01:17:53;3.17;118.99
75296;DHT22;64623;44.738;37.804;2024-03-08T01:18:56;3.18;118.99
75296;DHT22;64623;44.738;37.804;2024-03-08T01:20:00;3.13;118.99
75296;DHT22;64623;44.738;37.804;2024-03-08T01:21:03;3.11;118.99
75296;DHT22;64623;44.738;37.804;2024-03-08T01:22:06;3.14;118.99
75296;DHT22;64623;44.738;37.804;2024-03-08T01:23:10;3.12;118.99
75296;DHT22;64623;44.738;37.804;2024-03-08T01:24:13;3.10;118.99
75296;DHT22;64623;44.738;37.804;2024-03-08T01:25:16;3.10;118.99
75296;DHT22;64623;44.738;37.804;2024-03-08T01:26:19;3.10;118.99
75296;DHT22;64623;44.738;37.804;2024-03-08T01:27:22;3.10;118.99
75296;DHT22;64623;44.738;37.804;2024-03-08T01:28:25;3.06;118.99
75296;DHT22;64623;44.738;37.804;2024-03-08T01:29:29;3.08;118.99
75296;DHT22;64623;44.738;37.804;2024-03-08T01:30:35;3.08;118.99
75296;DHT22;64623;44.738;37.804;2024-03-08T01:31:40;3.06;118.99
75296;DHT22;64623;44.738;37.804;2024-03-08T01:32:43;3.06;118.99
75296;DHT22;64623;44.738;37.804;2024-03-08T01:33:46;3.05;118.99
75296;DHT22;64623;44.738;37.804;2024-03-08T01:34:49;3.04;118.99
75296;DHT22;64623;44.738;37.804;2024-03-08T01:35:53;3.05;118.99
75296;DHT22;64623;44.738;37.804;2024-03-08T01:36:55;3.05;118.99
75296;DHT22;64623;44.738;37.804;2024-03-08T01:37:59;3.06;118.99
75296;DHT22;64623;44.738;37.804;2024-03-08T01:39:02;3.09;118.99
75296;DHT22;64623;44.738;37.804;2024-03-08T01:40:06;3.08;118.99
75296;DHT22;64623;44.738;37.804;2024-03-08T01:41:11;3.13;118.99
75296;DHT22;64623;44.738;37.804;2024-03-08T01:42:15;3.14;118.99
75296;DHT22;64623;44.738;37.804;2024-03-08T01:43:27;3.12;118.99
75296;DHT22;64623;44.738;37.804;2024-03-08T01:44:33;3.12;118.99
75296;DHT22;64623;44.738;37.804;2024-03-08T01:45:36;3.06;118.99
75296;DHT22;64623;44.738;37.804;2024-03-08T01:46:39;3.08;118.99
75296;DHT22;64623;44.738;37.804;2024-03-08T01:47:42;3.08;118.99
75296;DHT22;64623;44.738;37.804;2024-03-08T01:48:45;3.14;118.99
75296;DHT22;64623;44.738;37.804;2024-03-08T01:49:52;3.11;118.99
75296;DHT22;64623;44.738;37.804;2024-03-08T01:50:56;3.16;118.99
75296;DHT22;64623;44.738;37.804;2024-03-08T01:52:00;3.14;118.99
75296;DHT22;64623;44.738;37.804;2024-03-08T01:53:03;3.17;118.99
75296;DHT22;64623;44.738;37.804;2024-03-08T01:54:09;3.12;118.99
75296;DHT22;64623;44.738;37.804;2024-03-08T01:55:13;3.13;118.99
75296;DHT22;64623;44.738;37.804;2024-03-08T01:56:17;3.18;118.99
75296;DHT22;64623;44.738;37.804;2024-03-08T01:57:21;3.21;118.99
75296;DHT22;64623;44.738;37.804;2024-03-08T01:58:27;3.20;118.99
75296;DHT22;64623;44.738;37.804;2024-03-08T01:59:31;3.27;118.99
75296;DHT22;64623;44.738;37.804;2024-03-08T02:00:35;3.28;118.99
75296;DHT22;64623;44.738;37.804;2024-03-08T02:01:39;3.42;118.99
75296;DHT22;64623;44.738;37.804;2024-03-08T02:06:57;3.57;118.99
75296;DHT22;64623;44.738;37.804;2024-03-08T02:08:03;3.48;118.99
75296;DHT22;64623;44.738;37.804;2024-03-08T02:09:08;3.40;118.99
75296;DHT22;64623;44.738;37.804;2024-03-08T02:10:11;3.33;118.99
75296;DHT22;64623;44.738;37.804;2024-03-08T02:11:18;3.35;118.99
75296;DHT22;64623;44.738;37.804;2024-03-08T02:12:23;3.31;118.99
75296;DHT22;64623;44.738;37.804;2024-03-08T02:13:26;3.35;118.99
75296;DHT22;64623;44.738;37.804;2024-03-08T02:14:29;3.41;118.99
75296;DHT22;64623;44.738;37.804;2024-03-08T02:15:56;3.36;118.99
75296;DHT22;64623;44.738;37.804;2024-03-08T02:17:19;3.52;118.99
75296;DHT22;64623;44.738;37.804;2024-03-08T02:18:23;3.36;118.99
75296;DHT22;64623;44.738;37.804;2024-03-08T02:19:26;3.31;118.99
75296;DHT22;64623;44.738;37.804;2024-03-08T02:20:29;3.39;118.99
75296;DHT22;64623;44.738;37.804;2024-03-08T02:21:32;3.39;118.99
75296;DHT22;64623;44.738;37.804;2024-03-08T02:22:36;3.40;118.99
75296;DHT22;64623;44.738;37.804;2024-03-08T02:23:39;3.34;118.99
75296;DHT22;64623;44.738;37.804;2024-03-08T02:24:43;3.40;118.99
75296;DHT22;64623;44.738;37.804;2024-03-08T02:25:47;3.39;118.99
75296;DHT22;64623;44.738;37.804;2024-03-08T02:26:50;3.33;118.99
75296;DHT22;64623;44.738;37.804;2024-03-08T02:27:53;3.33;118.99
75296;DHT22;64623;44.738;37.804;2024-03-08T02:28:57;3.33;118.99
75296;DHT22;64623;44.738;37.804;2024-03-08T02:30:00;3.34;118.99
75296;DHT22;64623;44.738;37.804;2024-03-08T02:31:04;3.32;118.99
75296;DHT22;64623;44.738;37.804;2024-03-08T02:32:10;3.36;118.99
75296;DHT22;64623;44.738;37.804;2024-03-08T02:33:14;3.42;118.99
75296;DHT22;64623;44.738;37.804;2024-03-08T02:34:20;3.35;118.99
75296;DHT22;64623;44.738;37.804;2024-03-08T02:35:23;3.33;118.99
75296;DHT22;64623;44.738;37.804;2024-03-08T02:36:26;3.30;118.99
75296;DHT22;64623;44.738;37.804;2024-03-08T02:37:29;3.28;118.99
75296;DHT22;64623;44.738;37.804;2024-03-08T02:38:32;3.30;118.99
75296;DHT22;64623;44.738;37.804;2024-03-08T02:39:35;3.35;118.99
75296;DHT22;64623;44.738;37.804;2024-03-08T02:40:38;3.41;118.99
75296;DHT22;64623;44.738;37.804;2024-03-08T02:41:41;3.38;118.99
75296;DHT22;64623;44.738;37.804;2024-03-08T02:42:45;3.38;118.99
75296;DHT22;64623;44.738;37.804;2024-03-08T02:43:48;3.35;118.99
75296;DHT22;64623;44.738;37.804;2024-03-08T02:44:51;3.36;118.99
75296;DHT22;64623;44.738;37.804;2024-03-08T02:45:54;3.40;118.99
75296;DHT22;64623;44.738;37.804;2024-03-08T02:46:57;3.42;118.99
75296;DHT22;64623;44.738;37.804;2024-03-08T02:48:00;3.38;118.99
75296;DHT22;64623;44.738;37.804;2024-03-08T02:49:03;3.33;118.99
75296;DHT22;64623;44.738;37.804;2024-03-08T02:50:06;3.35;118.99
75296;DHT22;64623;44.738;37.804;2024-03-08T02:51:10;3.36;118.99
75296;DHT22;64623;44.738;37.804;2024-03-08T02:52:13;3.38;118.99
75296;DHT22;64623;44.738;37.804;2024-03-08T02:53:16;3.41;118.99
75296;DHT22;64623;44.738;37.804;2024-03-08T02:54:21;3.41;118.99
75296;DHT22;64623;44.738;37.804;2024-03-08T02:55:24;3.42;118.99
75296;DHT22;64623;44.738;37.804;2024-03-08T02:56:28;3.42;118.99
75296;DHT22;64623;44.738;37.804;2024-03-08T02:57:32;3.42;118.99
75296;DHT22;64623;44.738;37.804;2024-03-08T02:58:35;3.38;118.99
75296;DHT22;64623;44.738;37.804;2024-03-08T02:59:38;3.41;118.99
75296;DHT22;64623;44.738;37.804;2024-03-08T03:00:42;3.47;118.99
75296;DHT22;64623;44.738;37.804;2024-03-08T03:01:46;3.47;118.99
75296;DHT22;64623;44.738;37.804;2024-03-08T03:02:50;3.52;118.99
75296;DHT22;64623;44.738;37.804;2024-03-08T03:03:56;3.54;118.99
75296;DHT22;64623;44.738;37.804;2024-03-08T03:04:59;3.57;118.99
75296;DHT22;64623;44.738;37.804;2024-03-08T03:06:05;3.61;118.99
75296;DHT22;64623;44.738;37.804;2024-03-08T03:07:09;3.60;118.99
75296;DHT22;64623;44.738;37.804;2024-03-08T03:08:13;3.60;118.99
75296;DHT22;64623;44.738;37.804;2024-03-08T03:09:18;3.64;118.99
75296;DHT22;64623;44.738;37.804;2024-03-08T03:10:26;3.68;118.99
75296;DHT22;64623;44.738;37.804;2024-03-08T03:11:29;3.65;118.99
75296;DHT22;64623;44.738;37.804;2024-03-08T03:12:32;3.73;118.99
75296;DHT22;64623;44.738;37.804;2024-03-08T03:13:36;3.65;118.99
75296;DHT22;64623;44.738;37.804;2024-03-08T03:14:39;3.65;118.99
75296;DHT22;64623;44.738;37.804;2024-03-08T03:15:42;3.61;118.99
75296;DHT22;64623;44.738;37.804;2024-03-08T03:16:45;3.53;118.99
75296;DHT22;64623;44.738;37.804;2024-03-08T03:17:49;3.50;118.99
75296;DHT22;64623;44.738;37.804;2024-03-08T03:18:55;3.47;118.99
75296;DHT22;64623;44.738;37.804;2024-03-08T03:19:59;3.45;118.99
75296;DHT22;64623;44.738;37.804;2024-03-08T03:21:07;3.38;118.99
75296;DHT22;64623;44.738;37.804;2024-03-08T03:22:10;3.36;118.99
75296;DHT22;64623;44.738;37.804;2024-03-08T03:23:13;3.35;118.99
75296;DHT22;64623;44.738;37.804;2024-03-08T03:24:17;3.32;118.99
75296;DHT22;64623;44.738;37.804;2024-03-08T03:25:21;3.30;118.99
75296;DHT22;64623;44.738;37.804;2024-03-08T03:26:38;3.33;118.99
75296;DHT22;64623;44.738;37.804;2024-03-08T03:27:43;3.32;118.99
75296;DHT22;64623;44.738;37.804;2024-03-08T03:28:46;3.31;118.99
75296;DHT22;64623;44.738;37.804;2024-03-08T03:29:49;3.36;118.99
75296;DHT22;64623;44.738;37.804;2024-03-08T03:30:53;3.36;118.99
75296;DHT22;64623;44.738;37.804;2024-03-08T03:31:56;3.36;118.99
75296;DHT22;64623;44.738;37.804;2024-03-08T03:33:00;3.39;118.99
75296;DHT22;64623;44.738;37.804;2024-03-08T03:34:03;3.39;118.99
75296;DHT22;64623;44.738;37.804;2024-03-08T03:35:06;3.32;118.99
75296;DHT22;64623;44.738;37.804;2024-03-08T03:36:09;3.33;118.99
75296;DHT22;64623;44.738;37.804;2024-03-08T03:37:13;3.39;118.99
75296;DHT22;64623;44.738;37.804;2024-03-08T03:38:16;3.38;118.99
75296;DHT22;64623;44.738;37.804;2024-03-08T03:39:19;3.38;118.99
75296;DHT22;64623;44.738;37.804;2024-03-08T03:40:22;3.42;118.99
75296;DHT22;64623;44.738;37.804;2024-03-08T03:41:27;3.39;118.99
75296;DHT22;64623;44.738;37.804;2024-03-08T03:42:30;3.38;118.99
75296;DHT22;64623;44.738;37.804;2024-03-08T03:43:34;3.40;118.99
75296;DHT22;64623;44.738;37.804;2024-03-08T03:44:36;3.39;118.99
75296;DHT22;64623;44.738;37.804;2024-03-08T03:45:39;3.40;118.99
75296;DHT22;64623;44.738;37.804;2024-03-08T03:46:44;3.42;118.99
75296;DHT22;64623;44.738;37.804;2024-03-08T03:47:47;3.48;118.99
75296;DHT22;64623;44.738;37.804;2024-03-08T03:48:49;3.47;118.99
75296;DHT22;64623;44.738;37.804;2024-03-08T03:49:52;3.43;118.99
75296;DHT22;64623;44.738;37.804;2024-03-08T03:50:56;3.41;118.99
75296;DHT22;64623;44.738;37.804;2024-03-08T03:51:59;3.39;118.99
75296;DHT22;64623;44.738;37.804;2024-03-08T03:53:03;3.39;118.99
75296;DHT22;64623;44.738;37.804;2024-03-08T03:54:06;3.41;118.99
75296;DHT22;64623;44.738;37.804;2024-03-08T03:55:10;3.41;118.99
75296;DHT22;64623;44.738;37.804;2024-03-08T03:56:14;3.42;118.99
75296;DHT22;64623;44.738;37.804;2024-03-08T03:57:17;3.43;118.99
75296;DHT22;64623;44.738;37.804;2024-03-08T03:58:21;3.41;118.99
75296;DHT22;64623;44.738;37.804;2024-03-08T03:59:25;3.40;118.99
75296;DHT22;64623;44.738;37.804;2024-03-08T04:00:28;3.35;118.99
75296;DHT22;64623;44.738;37.804;2024-03-08T04:01:31;3.34;118.99
75296;DHT22;64623;44.738;37.804;2024-03-08T04:02:35;3.33;118.99
75296;DHT22;64623;44.738;37.804;2024-03-08T04:03:41;3.38;118.99
75296;DHT22;64623;44.738;37.804;2024-03-08T04:04:46;3.35;118.99
75296;DHT22;64623;44.738;37.804;2024-03-08T04:05:50;3.36;118.99
75296;DHT22;64623;44.738;37.804;2024-03-08T04:06:53;3.39;118.99
75296;DHT22;64623;44.738;37.804;2024-03-08T04:07:57;3.40;118.99
75296;DHT22;64623;44.738;37.804;2024-03-08T04:09:00;3.43;118.99
75296;DHT22;64623;44.738;37.804;2024-03-08T04:10:04;3.45;118.99
75296;DHT22;64623;44.738;37.804;2024-03-08T04:11:08;3.47;118.99
75296;DHT22;64623;44.738;37.804;2024-03-08T04:12:12;3.50;118.99
75296;DHT22;64623;44.738;37.804;2024-03-08T04:13:15;3.55;118.99
75296;DHT22;64623;44.738;37.804;2024-03-08T04:14:18;3.52;118.99
75296;DHT22;64623;44.738;37.804;2024-03-08T04:15:21;3.56;118.99
75296;DHT22;64623;44.738;37.804;2024-03-08T04:16:24;3.62;118.99
75296;DHT22;64623;44.738;37.804;2024-03-08T04:17:28;3.71;118.99
75296;DHT22;64623;44.738;37.804;2024-03-08T04:18:31;3.73;118.99
75296;DHT22;64623;44.738;37.804;2024-03-08T04:19:35;3.73;118.99
75296;DHT22;64623;44.738;37.804;2024-03-08T04:20:38;3.78;118.99
75296;DHT22;64623;44.738;37.804;2024-03-08T04:21:42;3.74;118.99
75296;DHT22;64623;44.738;37.804;2024-03-08T04:22:45;3.71;118.99
75296;DHT22;64623;44.738;37.804;2024-03-08T04:23:51;3.68;118.99
75296;DHT22;64623;44.738;37.804;2024-03-08T04:24:54;3.65;118.99
75296;DHT22;64623;44.738;37.804;2024-03-08T04:25:57;3.67;118.99
75296;DHT22;64623;44.738;37.804;2024-03-08T04:27:00;3.63;118.99
75296;DHT22;64623;44.738;37.804;2024-03-08T04:28:04;3.57;118.99
75296;DHT22;64623;44.738;37.804;2024-03-08T04:29:07;3.54;118.99
75296;DHT22;64623;44.738;37.804;2024-03-08T04:30:10;3.52;118.99
75296;DHT22;64623;44.738;37.804;2024-03-08T04:31:13;3.54;118.99
75296;DHT22;64623;44.738;37.804;2024-03-08T04:32:16;3.50;118.99
75296;DHT22;64623;44.738;37.804;2024-03-08T04:33:20;3.48;118.99
75296;DHT22;64623;44.738;37.804;2024-03-08T04:34:24;3.47;118.99
75296;DHT22;64623;44.738;37.804;2024-03-08T04:35:27;3.46;118.99
75296;DHT22;64623;44.738;37.804;2024-03-08T04:36:30;3.44;118.99
75296;DHT22;64623;44.738;37.804;2024-03-08T04:37:33;3.44;118.99
75296;DHT22;64623;44.738;37.804;2024-03-08T04:38:36;3.43;118.99
75296;DHT22;64623;44.738;37.804;2024-03-08T04:39:39;3.34;118.99
75296;DHT22;64623;44.738;37.804;2024-03-08T04:40:42;3.38;118.99
75296;DHT22;64623;44.738;37.804;2024-03-08T04:41:46;3.36;118.99
75296;DHT22;64623;44.738;37.804;2024-03-08T04:42:49;3.33;118.99
75296;DHT22;64623;44.738;37.804;2024-03-08T04:43:53;3.35;118.99
75296;DHT22;64623;44.738;37.804;2024-03-08T04:44:57;3.35;118.99
75296;DHT22;64623;44.738;37.804;2024-03-08T04:46:00;3.34;118.99
75296;DHT22;64623;44.738;37.804;2024-03-08T04:47:06;3.32;118.99
75296;DHT22;64623;44.738;37.804;2024-03-08T04:48:09;3.29;118.99
75296;DHT22;64623;44.738;37.804;2024-03-08T04:49:14;3.27;118.99
75296;DHT22;64623;44.738;37.804;2024-03-08T04:50:17;3.24;118.99
75296;DHT22;64623;44.738;37.804;2024-03-08T04:51:20;3.27;118.99
75296;DHT22;64623;44.738;37.804;2024-03-08T04:52:23;3.28;118.99
75296;DHT22;64623;44.738;37.804;2024-03-08T04:53:26;3.20;118.99
75296;DHT22;64623;44.738;37.804;2024-03-08T04:54:30;3.20;118.99
75296;DHT22;64623;44.738;37.804;2024-03-08T04:55:34;3.18;118.99
75296;DHT22;64623;44.738;37.804;2024-03-08T04:56:37;3.15;118.99
75296;DHT22;64623;44.738;37.804;2024-03-08T04:57:40;3.17;118.99
75296;DHT22;64623;44.738;37.804;2024-03-08T04:58:45;3.18;118.99
75296;DHT22;64623;44.738;37.804;2024-03-08T04:59:51;3.20;118.99
75296;DHT22;64623;44.738;37.804;2024-03-08T05:00:54;3.24;118.99
75296;DHT22;64623;44.738;37.804;2024-03-08T05:01:58;3.24;118.99
75296;DHT22;64623;44.738;37.804;2024-03-08T05:03:02;3.23;118.99
75296;DHT22;64623;44.738;37.804;2024-03-08T05:04:05;3.26;118.99
75296;DHT22;64623;44.738;37.804;2024-03-08T05:05:09;3.29;118.99
75296;DHT22;64623;44.738;37.804;2024-03-08T05:06:16;3.29;118.99
75296;DHT22;64623;44.738;37.804;2024-03-08T05:07:19;3.27;118.99
75296;DHT22;64623;44.738;37.804;2024-03-08T05:08:22;3.24;118.99
75296;DHT22;64623;44.738;37.804;2024-03-08T05:09:25;3.28;118.99
75296;DHT22;64623;44.738;37.804;2024-03-08T05:10:28;3.23;118.99
75296;DHT22;64623;44.738;37.804;2024-03-08T05:11:31;3.27;118.99
75296;DHT22;64623;44.738;37.804;2024-03-08T05:12:34;3.30;118.99
75296;DHT22;64623;44.738;37.804;2024-03-08T05:13:37;3.32;118.99
75296;DHT22;64623;44.738;37.804;2024-03-08T05:14:40;3.31;118.99
75296;DHT22;64623;44.738;37.804;2024-03-08T05:15:43;3.30;118.99
75296;DHT22;64623;44.738;37.804;2024-03-08T05:16:47;3.29;118.99
75296;DHT22;64623;44.738;37.804;2024-03-08T05:17:52;3.27;118.99
75296;DHT22;64623;44.738;37.804;2024-03-08T05:18:55;3.25;118.99
75296;DHT22;64623;44.738;37.804;2024-03-08T05:19:59;3.26;118.99
75296;DHT22;64623;44.738;37.804;2024-03-08T05:21:03;3.27;118.99
75296;DHT22;64623;44.738;37.804;2024-03-08T05:22:06;3.30;118.99
75296;DHT22;64623;44.738;37.804;2024-03-08T05:23:09;3.29;118.99
75296;DHT22;64623;44.738;37.804;2024-03-08T05:24:13;3.33;118.99
75296;DHT22;64623;44.738;37.804;2024-03-08T05:25:17;3.38;118.99
75296;DHT22;64623;44.738;37.804;2024-03-08T05:26:20;3.39;118.99
75296;DHT22;64623;44.738;37.804;2024-03-08T05:27:24;3.40;118.99
75296;DHT22;64623;44.738;37.804;2024-03-08T05:28:28;3.43;118.99
75296;DHT22;64623;44.738;37.804;2024-03-08T05:29:30;3.43;118.99
75296;DHT22;64623;44.738;37.804;2024-03-08T05:30:33;3.46;118.99
75296;DHT22;64623;44.738;37.804;2024-03-08T05:31:49;3.42;118.99
75296;DHT22;64623;44.738;37.804;2024-03-08T05:32:52;3.41;118.99
75296;DHT22;64623;44.738;37.804;2024-03-08T05:33:55;3.38;118.99
75296;DHT22;64623;44.738;37.804;2024-03-08T05:34:58;3.40;118.99
75296;DHT22;64623;44.738;37.804;2024-03-08T05:36:01;3.46;118.99
75296;DHT22;64623;44.738;37.804;2024-03-08T05:37:05;3.61;118.99
75296;DHT22;64623;44.738;37.804;2024-03-08T05:38:09;3.69;118.99
75296;DHT22;64623;44.738;37.804;2024-03-08T05:39:13;3.79;118.99
75296;DHT22;64623;44.738;37.804;2024-03-08T05:40:16;3.88;118.99
75296;DHT22;64623;44.738;37.804;2024-03-08T05:41:19;4.05;118.99
75296;DHT22;64623;44.738;37.804;2024-03-08T05:42:22;4.13;118.99
75296;DHT22;64623;44.738;37.804;2024-03-08T05:43:25;4.18;118.99
75296;DHT22;64623;44.738;37.804;2024-03-08T05:44:28;4.24;118.99
75296;DHT22;64623;44.738;37.804;2024-03-08T05:45:32;4.27;118.99
75296;DHT22;64623;44.738;37.804;2024-03-08T05:46:36;4.28;118.99
75296;DHT22;64623;44.738;37.804;2024-03-08T05:47:39;4.30;118.99
75296;DHT22;64623;44.738;37.804;2024-03-08T05:48:42;4.43;118.99
75296;DHT22;64623;44.738;37.804;2024-03-08T05:49:45;4.47;118.99
75296;DHT22;64623;44.738;37.804;2024-03-08T05:50:48;4.48;118.99
75296;DHT22;64623;44.738;37.804;2024-03-08T05:51:51;4.52;118.99
75296;DHT22;64623;44.738;37.804;2024-03-08T05:52:54;4.54;118.99
75296;DHT22;64623;44.738;37.804;2024-03-08T05:53:58;4.65;118.99
75296;DHT22;64623;44.738;37.804;2024-03-08T05:55:01;4.74;118.99
75296;DHT22;64623;44.738;37.804;2024-03-08T05:56:05;4.84;118.99
75296;DHT22;64623;44.738;37.804;2024-03-08T05:57:08;4.80;118.99
75296;DHT22;64623;44.738;37.804;2024-03-08T05:58:11;4.81;118.99
75296;DHT22;64623;44.738;37.804;2024-03-08T05:59:14;4.87;118.99
75296;DHT22;64623;44.738;37.804;2024-03-08T06:00:17;4.87;118.99
75296;DHT22;64623;44.738;37.804;2024-03-08T06:01:22;4.91;118.99
75296;DHT22;64623;44.738;37.804;2024-03-08T06:02:25;4.94;118.99
75296;DHT22;64623;44.738;37.804;2024-03-08T06:03:28;4.95;118.99
75296;DHT22;64623;44.738;37.804;2024-03-08T06:04:31;5.02;118.99
75296;DHT22;64623;44.738;37.804;2024-03-08T06:05:34;5.06;118.99
75296;DHT22;64623;44.738;37.804;2024-03-08T06:06:37;5.06;118.99
75296;DHT22;64623;44.738;37.804;2024-03-08T06:07:40;5.08;118.99
75296;DHT22;64623;44.738;37.804;2024-03-08T06:08:44;5.22;118.99
75296;DHT22;64623;44.738;37.804;2024-03-08T06:09:47;5.24;118.99
75296;DHT22;64623;44.738;37.804;2024-03-08T06:10:50;5.28;118.99
75296;DHT22;64623;44.738;37.804;2024-03-08T06:11:55;5.30;118.99
75296;DHT22;64623;44.738;37.804;2024-03-08T06:12:59;5.25;118.99
75296;DHT22;64623;44.738;37.804;2024-03-08T06:14:04;5.31;118.99
75296;DHT22;64623;44.738;37.804;2024-03-08T06:15:08;5.36;118.99
75296;DHT22;64623;44.738;37.804;2024-03-08T06:16:12;5.50;118.99
75296;DHT22;64623;44.738;37.804;2024-03-08T06:17:15;5.62;118.99
75296;DHT22;64623;44.738;37.804;2024-03-08T06:18:18;5.69;118.99
75296;DHT22;64623;44.738;37.804;2024-03-08T06:19:21;5.70;118.99
75296;DHT22;64623;44.738;37.804;2024-03-08T06:20:24;5.74;118.99
75296;DHT22;64623;44.738;37.804;2024-03-08T06:21:28;5.68;118.99
75296;DHT22;64623;44.738;37.804;2024-03-08T06:22:31;5.71;118.99
75296;DHT22;64623;44.738;37.804;2024-03-08T06:23:35;5.85;118.99
75296;DHT22;64623;44.738;37.804;2024-03-08T06:24:46;5.85;118.99
75296;DHT22;64623;44.738;37.804;2024-03-08T06:25:50;5.95;118.99
75296;DHT22;64623;44.738;37.804;2024-03-08T06:26:53;6.08;118.99
75296;DHT22;64623;44.738;37.804;2024-03-08T06:27:56;6.37;118.99
75296;DHT22;64623;44.738;37.804;2024-03-08T06:28:59;6.65;118.99
75296;DHT22;64623;44.738;37.804;2024-03-08T06:30:03;6.88;118.99
75296;DHT22;64623;44.738;37.804;2024-03-08T06:31:07;6.95;118.99
75296;DHT22;64623;44.738;37.804;2024-03-08T06:32:10;7.01;118.99
75296;DHT22;64623;44.738;37.804;2024-03-08T06:33:13;7.18;118.99
75296;DHT22;64623;44.738;37.804;2024-03-08T06:34:16;7.31;118.99
75296;DHT22;64623;44.738;37.804;2024-03-08T06:35:20;7.52;118.99
75296;DHT22;64623;44.738;37.804;2024-03-08T06:36:23;7.67;118.99
75296;DHT22;64623;44.738;37.804;2024-03-08T06:37:29;7.72;118.99
75296;DHT22;64623;44.738;37.804;2024-03-08T06:38:34;7.74;118.99
75296;DHT22;64623;44.738;37.804;2024-03-08T06:39:37;7.90;118.99
75296;DHT22;64623;44.738;37.804;2024-03-08T06:40:40;8.01;118.99